createdAt,value
2018-05-06T00:01:48.727Z,0.00
2018-05-06T00:03:09.735Z,0.00
2018-05-06T00:03:48.738Z,0.00
2018-05-06T00:04:55.233Z,0.00
2018-05-06T00:05:49.288Z,0.00
2018-05-06T00:06:49.238Z,0.00
2018-05-06T00:07:49.233Z,0.00
2018-05-06T00:08:49.732Z,0.00
2018-05-06T00:09:49.734Z,0.00
2018-05-06T00:10:49.733Z,0.00
2018-05-06T00:11:49.737Z,0.00
2018-05-06T00:12:49.379Z,0.00
2018-05-06T00:13:50.230Z,0.00
2018-05-06T00:14:50.232Z,0.00
2018-05-06T00:15:49.703Z,0.00
2018-05-06T00:17:14.223Z,0.00
2018-05-06T00:17:49.930Z,0.00
2018-05-06T00:18:50.743Z,0.00
2018-05-06T00:19:50.732Z,0.00
2018-05-06T00:20:50.203Z,0.00
2018-05-06T00:23:22.461Z,0.00
2018-05-06T00:24:21.836Z,0.00
2018-05-06T00:25:22.474Z,0.00
2018-05-06T00:28:15.228Z,0.00
2018-05-06T00:28:54.235Z,0.00
2018-05-06T00:30:15.236Z,0.00
2018-05-06T00:30:54.735Z,0.00
2018-05-06T00:31:53.954Z,0.00
2018-05-06T00:33:18.167Z,0.00
2018-05-06T00:33:54.735Z,0.00
2018-05-06T00:34:54.344Z,0.00
2018-05-06T00:36:01.237Z,0.00
2018-05-06T00:36:55.235Z,0.00
2018-05-06T00:37:55.234Z,0.00
2018-05-06T00:38:55.732Z,0.00
2018-05-06T00:39:57.733Z,0.00
2018-05-06T00:40:55.096Z,0.00
2018-05-06T00:41:55.737Z,0.00
2018-05-06T00:43:17.234Z,0.00
2018-05-06T00:43:56.242Z,0.00
2018-05-06T00:44:56.234Z,0.00
2018-05-06T00:45:56.235Z,0.00
2018-05-06T00:48:28.017Z,0.00
2018-05-06T00:49:28.021Z,0.00
2018-05-06T00:50:28.028Z,0.00
2018-05-06T00:51:48.605Z,0.00
2018-05-06T00:52:31.018Z,0.00
2018-05-06T00:53:27.864Z,0.00
2018-05-06T00:54:28.518Z,0.00
2018-05-06T00:55:50.019Z,0.00
2018-05-06T00:58:00.398Z,0.00
2018-05-06T00:59:00.401Z,0.00
2018-05-06T01:00:14.421Z,0.00
2018-05-06T01:02:32.173Z,0.00
2018-05-06T01:03:32.180Z,0.00
2018-05-06T01:04:32.179Z,0.00
2018-05-06T01:05:32.681Z,0.00
2018-05-06T01:06:55.134Z,0.00
2018-05-06T01:07:32.715Z,0.00
2018-05-06T01:08:34.153Z,0.00
2018-05-06T01:09:32.680Z,0.00
2018-05-06T01:12:04.428Z,0.00
2018-05-06T01:13:04.434Z,0.00
2018-05-06T01:14:04.443Z,0.00
2018-05-06T01:18:07.607Z,0.00
2018-05-06T01:19:07.615Z,0.00
2018-05-06T01:20:07.084Z,0.00
2018-05-06T01:21:29.114Z,0.00
2018-05-06T01:22:08.121Z,0.00
2018-05-06T01:23:08.114Z,0.00
2018-05-06T01:24:10.091Z,0.00
2018-05-06T01:27:00.839Z,0.00
2018-05-06T01:28:00.840Z,0.00
2018-05-06T01:28:39.841Z,0.00
2018-05-06T01:30:00.442Z,0.00
2018-05-06T01:32:11.703Z,0.00
2018-05-06T01:33:11.715Z,0.00
2018-05-06T01:34:32.757Z,0.00
2018-05-06T01:35:12.210Z,0.00
2018-05-06T01:37:43.476Z,0.00
2018-05-06T01:38:45.475Z,0.00
2018-05-06T01:40:04.475Z,0.00
2018-05-06T01:41:06.449Z,0.00
2018-05-06T01:41:44.951Z,0.00
2018-05-06T01:42:57.974Z,0.00
2018-05-06T01:44:04.973Z,0.00
2018-05-06T01:45:05.480Z,0.00
2018-05-06T01:47:15.442Z,0.00
2018-05-06T01:48:16.394Z,0.00
2018-05-06T01:50:47.764Z,0.00
2018-05-06T01:51:53.771Z,0.00
2018-05-06T01:52:47.767Z,0.00
2018-05-06T01:54:10.704Z,0.00
2018-05-06T01:54:48.270Z,0.00
2018-05-06T01:55:48.271Z,0.00
2018-05-06T01:56:48.271Z,0.00
2018-05-06T01:59:41.029Z,0.00
2018-05-06T02:02:12.538Z,0.00
2018-05-06T02:03:12.485Z,0.00
2018-05-06T02:03:52.548Z,0.00
2018-05-06T02:04:52.998Z,0.00
2018-05-06T02:07:23.255Z,0.00
2018-05-06T02:08:44.262Z,0.00
2018-05-06T02:09:23.266Z,0.00
2018-05-06T02:10:46.223Z,0.00
2018-05-06T02:11:44.762Z,0.00
2018-05-06T02:12:23.762Z,0.00
2018-05-06T02:13:23.762Z,0.00
2018-05-06T02:14:24.268Z,0.00
2018-05-06T02:15:45.269Z,0.00
2018-05-06T02:16:24.261Z,0.00
2018-05-06T02:17:24.261Z,0.00
2018-05-06T02:18:24.766Z,0.00
2018-05-06T02:19:38.761Z,0.00
2018-05-06T02:20:27.693Z,0.00
2018-05-06T02:21:45.761Z,0.00
2018-05-06T02:23:56.512Z,0.00
2018-05-06T02:24:56.518Z,0.00
2018-05-06T02:25:57.515Z,0.00
2018-05-06T02:26:56.107Z,0.00
2018-05-06T02:27:57.020Z,0.00
2018-05-06T02:28:57.025Z,0.00
2018-05-06T02:29:57.017Z,0.00
2018-05-06T02:30:57.518Z,0.00
2018-05-06T02:32:11.518Z,0.00
2018-05-06T02:33:03.521Z,0.00
2018-05-06T02:33:57.518Z,0.00
2018-05-06T02:35:21.019Z,0.00
2018-05-06T02:35:58.017Z,0.00
2018-05-06T02:36:59.949Z,0.00
2018-05-06T02:37:58.014Z,0.00
2018-05-06T02:38:58.517Z,0.00
2018-05-06T02:39:57.737Z,0.00
2018-05-06T02:41:18.842Z,0.00
2018-05-06T02:41:58.516Z,0.00
2018-05-06T02:42:57.988Z,0.00
2018-05-06T02:43:59.017Z,0.00
2018-05-06T02:45:00.480Z,0.00
2018-05-06T02:45:59.017Z,0.00
2018-05-06T02:47:20.018Z,0.00
2018-05-06T02:48:00.994Z,0.00
2018-05-06T02:48:59.523Z,0.00
2018-05-06T02:49:59.516Z,0.00
2018-05-06T02:52:31.174Z,0.00
2018-05-06T02:53:32.728Z,0.00
2018-05-06T02:54:31.181Z,0.00
2018-05-06T02:55:31.684Z,0.00
2018-05-06T02:56:33.613Z,0.00
2018-05-06T02:57:31.680Z,0.00
2018-05-06T02:58:31.680Z,0.00
2018-05-06T02:59:32.181Z,0.00
2018-05-06T03:00:55.182Z,0.00
2018-05-06T03:03:03.707Z,0.00
2018-05-06T03:05:34.976Z,0.00
2018-05-06T03:06:35.709Z,0.00
2018-05-06T03:07:35.708Z,0.00
2018-05-06T03:10:07.456Z,0.00
2018-05-06T03:11:07.464Z,0.00
2018-05-06T03:12:07.474Z,0.00
2018-05-06T03:13:07.963Z,0.00
2018-05-06T03:14:07.964Z,0.00
2018-05-06T03:15:07.307Z,4.00
2018-05-06T03:16:07.962Z,0.00
2018-05-06T03:17:08.462Z,0.00
2018-05-06T03:18:08.466Z,4.00
2018-05-06T03:19:08.461Z,4.00
2018-05-06T03:20:08.473Z,0.00
2018-05-06T03:21:08.966Z,4.00
2018-05-06T03:22:09.894Z,4.00
2018-05-06T03:23:08.961Z,4.00
2018-05-06T03:24:29.961Z,4.00
2018-05-06T03:25:08.562Z,4.00
2018-05-06T03:26:09.460Z,4.00
2018-05-06T03:27:09.461Z,8.00
2018-05-06T03:28:23.459Z,8.00
2018-05-06T03:29:09.961Z,12.00
2018-05-06T03:31:09.962Z,12.00
2018-05-06T03:32:09.967Z,20.00
2018-05-06T03:34:41.703Z,24.00
2018-05-06T03:35:41.048Z,28.00
2018-05-06T03:36:41.141Z,36.00
2018-05-06T03:37:42.210Z,36.00
2018-05-06T03:38:42.215Z,44.00
2018-05-06T03:41:15.342Z,56.00
2018-05-06T03:42:14.410Z,60.00
2018-05-06T03:43:14.418Z,68.00
2018-05-06T03:44:14.910Z,76.00
2018-05-06T03:45:14.155Z,84.00
2018-05-06T03:46:35.911Z,92.00
2018-05-06T03:47:14.910Z,100.00
2018-05-06T03:48:15.411Z,108.00
2018-05-06T03:49:15.413Z,116.00
2018-05-06T03:50:15.410Z,128.00
2018-05-06T03:51:15.407Z,136.00
2018-05-06T03:52:15.924Z,148.00
2018-05-06T03:53:36.910Z,160.00
2018-05-06T03:54:15.900Z,172.00
2018-05-06T03:55:15.407Z,184.00
2018-05-06T03:56:17.841Z,196.00
2018-05-06T03:57:16.413Z,208.00
2018-05-06T03:58:16.416Z,220.00
2018-05-06T03:59:16.406Z,232.00
2018-05-06T04:00:16.912Z,244.00
2018-05-06T04:02:48.301Z,276.00
2018-05-06T04:03:48.309Z,288.00
2018-05-06T04:04:48.309Z,304.00
2018-05-06T04:05:48.813Z,316.00
2018-05-06T04:06:48.815Z,332.00
2018-05-06T04:07:48.149Z,344.00
2018-05-06T04:08:48.807Z,360.00
2018-05-06T04:09:49.315Z,376.00
2018-05-06T04:12:41.690Z,412.00
2018-05-06T04:13:20.692Z,424.00
2018-05-06T04:14:20.692Z,440.00
2018-05-06T04:15:21.194Z,452.00
2018-05-06T04:16:21.199Z,472.00
2018-05-06T04:17:21.194Z,484.00
2018-05-06T04:18:21.192Z,500.00
2018-05-06T04:19:21.692Z,516.00
2018-05-06T04:20:21.691Z,532.00
2018-05-06T04:21:21.824Z,548.00
2018-05-06T04:22:21.701Z,560.00
2018-05-06T04:23:22.193Z,576.00
2018-05-06T04:26:14.562Z,612.00
2018-05-06T04:29:56.500Z,672.00
2018-05-06T04:31:02.507Z,684.00
2018-05-06T04:31:56.507Z,700.00
2018-05-06T04:34:29.700Z,732.00
2018-05-06T04:35:28.267Z,744.00
2018-05-06T04:36:29.265Z,756.00
2018-05-06T04:37:30.706Z,768.00
2018-05-06T04:38:30.702Z,784.00
2018-05-06T04:39:28.775Z,796.00
2018-05-06T04:40:28.769Z,808.00
2018-05-06T04:41:29.269Z,820.00
2018-05-06T04:42:49.467Z,832.00
2018-05-06T04:43:50.273Z,840.00
2018-05-06T04:46:00.773Z,868.00
2018-05-06T04:47:21.779Z,880.00
2018-05-06T04:48:00.780Z,888.00
2018-05-06T04:49:22.280Z,900.00
2018-05-06T04:50:01.284Z,912.00
2018-05-06T04:51:01.279Z,920.00
2018-05-06T04:52:03.211Z,928.00
2018-05-06T04:53:00.871Z,936.00
2018-05-06T04:54:22.780Z,944.00
2018-05-06T04:55:01.779Z,952.00
2018-05-06T04:56:01.782Z,960.00
2018-05-06T04:57:22.781Z,972.00
2018-05-06T04:58:01.379Z,980.00
2018-05-06T04:59:23.284Z,984.00
2018-05-06T05:00:16.278Z,996.00
2018-05-06T05:01:01.812Z,1004.00
2018-05-06T05:02:23.784Z,1008.00
2018-05-06T05:03:02.778Z,1016.00
2018-05-06T05:04:04.241Z,1024.00
2018-05-06T05:05:02.778Z,1032.00
2018-05-06T05:06:02.374Z,1040.00
2018-05-06T05:07:03.285Z,1044.00
2018-05-06T05:09:34.839Z,1064.00
2018-05-06T05:10:55.844Z,1068.00
2018-05-06T05:11:55.845Z,1072.00
2018-05-06T05:12:49.353Z,1080.00
2018-05-06T05:13:56.343Z,1084.00
2018-05-06T05:14:35.380Z,1096.00
2018-05-06T05:15:36.275Z,1096.00
2018-05-06T05:19:38.500Z,1124.00
2018-05-06T05:20:59.505Z,1128.00
2018-05-06T05:21:59.504Z,1132.00
2018-05-06T05:23:00.007Z,1136.00
2018-05-06T05:23:38.226Z,1144.00
2018-05-06T05:24:38.321Z,1148.00
2018-05-06T05:25:39.003Z,1156.00
2018-05-06T05:26:39.007Z,1164.00
2018-05-06T05:27:39.505Z,1168.00
2018-05-06T05:28:39.505Z,1172.00
2018-05-06T05:30:02.505Z,1176.00
2018-05-06T05:30:39.505Z,1184.00
2018-05-06T05:32:01.005Z,1188.00
2018-05-06T05:34:11.388Z,1200.00
2018-05-06T05:35:11.397Z,1204.00
2018-05-06T05:36:11.397Z,1212.00
2018-05-06T05:37:11.015Z,1216.00
2018-05-06T05:38:13.335Z,1220.00
2018-05-06T05:39:11.905Z,1228.00
2018-05-06T05:40:11.902Z,1228.00
2018-05-06T05:41:11.895Z,1236.00
2018-05-06T05:42:32.545Z,1244.00
2018-05-06T05:45:06.229Z,1256.00
2018-05-06T05:45:43.769Z,1264.00
2018-05-06T05:46:44.756Z,1268.00
2018-05-06T05:47:50.314Z,1272.00
2018-05-06T05:50:36.631Z,1288.00
2018-05-06T05:51:15.639Z,1292.00
2018-05-06T05:52:16.605Z,1300.00
2018-05-06T05:53:15.216Z,1304.00
2018-05-06T05:54:17.070Z,1316.00
2018-05-06T05:55:37.166Z,1320.00
2018-05-06T05:56:15.486Z,1324.00
2018-05-06T05:57:17.094Z,1324.00
2018-05-06T05:58:16.644Z,1332.00
2018-05-06T05:59:16.647Z,1332.00
2018-05-06T06:00:16.638Z,1336.00
2018-05-06T06:01:16.668Z,1344.00
2018-05-06T06:02:17.164Z,1348.00
2018-05-06T06:03:17.148Z,1348.00
2018-05-06T06:04:17.138Z,1356.00
2018-05-06T06:05:17.137Z,1360.00
2018-05-06T06:06:17.645Z,1364.00
2018-05-06T06:07:18.611Z,1368.00
2018-05-06T06:08:17.636Z,1368.00
2018-05-06T06:09:38.666Z,1376.00
2018-05-06T06:10:18.139Z,1376.00
2018-05-06T06:11:39.140Z,1384.00
2018-05-06T06:12:20.138Z,1384.00
2018-05-06T06:13:38.591Z,1388.00
2018-05-06T06:14:18.639Z,1388.00
2018-05-06T06:15:18.638Z,1396.00
2018-05-06T06:16:18.643Z,1396.00
2018-05-06T06:17:18.637Z,1404.00
2018-05-06T06:18:18.638Z,1408.00
2018-05-06T06:19:40.137Z,1408.00
2018-05-06T06:20:39.362Z,1416.00
2018-05-06T06:21:40.138Z,1416.00
2018-05-06T06:22:19.138Z,1420.00
2018-05-06T06:25:11.890Z,1424.00
2018-05-06T06:26:12.911Z,1432.00
2018-05-06T06:26:51.835Z,1436.00
2018-05-06T06:27:50.449Z,1440.00
2018-05-06T06:30:23.649Z,1448.00
2018-05-06T06:31:22.722Z,1448.00
2018-05-06T06:32:45.173Z,1456.00
2018-05-06T06:33:43.256Z,1464.00
2018-05-06T06:35:54.506Z,1476.00
2018-05-06T06:36:53.878Z,1492.00
2018-05-06T06:37:54.514Z,1496.00
2018-05-06T06:39:16.026Z,1512.00
2018-05-06T06:42:57.402Z,1544.00
2018-05-06T06:43:57.492Z,1552.00
2018-05-06T06:44:58.340Z,1564.00
2018-05-06T06:46:19.338Z,1572.00
2018-05-06T06:46:58.331Z,1584.00
2018-05-06T06:48:21.285Z,1592.00
2018-05-06T06:48:58.839Z,1600.00
2018-05-06T06:50:12.831Z,1608.00
2018-05-06T06:50:59.766Z,1624.00
2018-05-06T06:53:31.392Z,1652.00
2018-05-06T06:54:30.462Z,1660.00
2018-05-06T06:55:30.466Z,1680.00
2018-05-06T06:58:02.209Z,1736.00
2018-05-06T06:59:02.216Z,1760.00
2018-05-06T07:00:24.154Z,1776.00
2018-05-06T07:02:54.929Z,1836.00
2018-05-06T07:03:33.934Z,1856.00
2018-05-06T07:04:58.214Z,1884.00
2018-05-06T07:05:57.508Z,1904.00
2018-05-06T07:06:54.645Z,1928.00
2018-05-06T07:07:33.745Z,1964.00
2018-05-06T07:08:56.372Z,1980.00
2018-05-06T07:09:34.435Z,2004.00
2018-05-06T07:10:34.934Z,2028.00
2018-05-06T07:11:34.941Z,2052.00
2018-05-06T07:12:34.943Z,2084.00
2018-05-06T07:13:34.939Z,2104.00
2018-05-06T07:14:35.436Z,2132.00
2018-05-06T07:15:49.451Z,2156.00
2018-05-06T07:18:27.981Z,2216.00
2018-05-06T07:19:06.988Z,2236.00
2018-05-06T07:20:06.462Z,2268.00
2018-05-06T07:21:29.427Z,2292.00
2018-05-06T07:22:07.487Z,2324.00
2018-05-06T07:23:07.488Z,2340.00
2018-05-06T07:24:09.487Z,2364.00
2018-05-06T07:25:07.494Z,2392.00
2018-05-06T07:26:07.988Z,2416.00
2018-05-06T07:27:07.990Z,2440.00
2018-05-06T07:28:07.988Z,2456.00
2018-05-06T07:29:07.988Z,2476.00
2018-05-06T07:30:08.491Z,2508.00
2018-05-06T07:31:09.920Z,2516.00
2018-05-06T07:32:08.545Z,2532.00
2018-05-06T07:33:09.919Z,2548.00
2018-05-06T07:34:07.957Z,2560.00
2018-05-06T07:35:08.987Z,2572.00
2018-05-06T07:36:08.987Z,2580.00
2018-05-06T07:37:08.986Z,2588.00
2018-05-06T07:38:08.988Z,2600.00
2018-05-06T07:39:11.559Z,2616.00
2018-05-06T07:40:09.488Z,2624.00
2018-05-06T07:43:05.316Z,2644.00
2018-05-06T07:43:42.876Z,2652.00
2018-05-06T07:44:41.377Z,2664.00
2018-05-06T07:45:41.376Z,2664.00
2018-05-06T07:47:02.376Z,2672.00
2018-05-06T07:47:41.379Z,2680.00
2018-05-06T07:49:02.920Z,2684.00
2018-05-06T07:49:43.308Z,2700.00
2018-05-06T07:50:41.916Z,2720.00
2018-05-06T07:53:13.441Z,2708.00
2018-05-06T07:54:13.447Z,2700.00
2018-05-06T07:55:35.441Z,2696.00
2018-05-06T07:56:15.946Z,2732.00
2018-05-06T07:58:45.362Z,2740.00
2018-05-06T07:59:45.340Z,2768.00
2018-05-06T08:00:45.340Z,2740.00
2018-05-06T08:01:50.772Z,2736.00
2018-05-06T08:02:45.069Z,2748.00
2018-05-06T08:03:45.844Z,2752.00
2018-05-06T08:04:45.840Z,2764.00
2018-05-06T08:05:46.340Z,2740.00
2018-05-06T08:06:49.272Z,2764.00
2018-05-06T08:07:46.340Z,2760.00
2018-05-06T08:09:08.338Z,2760.00
2018-05-06T08:09:48.273Z,2764.00
2018-05-06T08:11:07.840Z,2780.00
2018-05-06T08:11:46.840Z,2784.00
2018-05-06T08:13:07.844Z,2784.00
2018-05-06T08:13:47.341Z,2780.00
2018-05-06T08:15:08.341Z,2780.00
2018-05-06T08:15:47.340Z,2784.00
2018-05-06T08:16:47.340Z,2776.00
2018-05-06T08:17:49.851Z,2776.00
2018-05-06T08:20:19.246Z,2784.00
2018-05-06T08:21:47.241Z,2784.00
2018-05-06T08:22:20.718Z,2796.00
2018-05-06T08:23:21.756Z,2792.00
2018-05-06T08:26:11.409Z,2812.00
2018-05-06T08:27:12.146Z,2808.00
2018-05-06T08:27:50.649Z,2808.00
2018-05-06T08:30:22.910Z,2820.00
2018-05-06T08:31:22.921Z,2816.00
2018-05-06T08:32:23.416Z,2824.00
2018-05-06T08:33:26.848Z,2844.00
2018-05-06T08:34:24.413Z,2832.00
2018-05-06T08:35:23.418Z,2844.00
2018-05-06T08:36:23.021Z,2860.00
2018-05-06T08:37:37.998Z,2884.00
2018-05-06T08:38:23.916Z,2872.00
2018-05-06T08:39:23.919Z,2876.00
2018-05-06T08:40:45.416Z,2776.00
2018-05-06T08:41:51.416Z,2876.00
2018-05-06T08:42:38.418Z,2888.00
2018-05-06T08:43:45.414Z,2888.00
2018-05-06T08:44:24.917Z,2908.00
2018-05-06T08:45:24.913Z,2912.00
2018-05-06T08:46:24.927Z,2924.00
2018-05-06T08:47:24.917Z,2920.00
2018-05-06T08:48:25.417Z,2928.00
2018-05-06T08:50:56.831Z,2940.00
2018-05-06T08:51:56.828Z,2968.00
2018-05-06T08:52:56.828Z,2952.00
2018-05-06T08:53:57.328Z,2952.00
2018-05-06T08:54:58.260Z,2960.00
2018-05-06T08:55:57.328Z,2968.00
2018-05-06T08:56:57.332Z,2980.00
2018-05-06T08:57:57.828Z,2972.00
2018-05-06T09:00:52.727Z,2988.00
2018-05-06T09:01:56.733Z,3008.00
2018-05-06T09:02:50.074Z,3016.00
2018-05-06T09:03:29.735Z,3008.00
2018-05-06T09:04:31.699Z,3012.00
2018-05-06T09:05:30.232Z,3052.00
2018-05-06T09:06:30.230Z,3036.00
2018-05-06T09:07:30.239Z,3044.00
2018-05-06T09:10:02.003Z,3056.00
2018-05-06T09:11:02.078Z,3100.00
2018-05-06T09:12:02.012Z,3064.00
2018-05-06T09:13:23.509Z,3080.00
2018-05-06T09:14:02.508Z,3116.00
2018-05-06T09:15:02.531Z,3112.00
2018-05-06T09:16:03.004Z,3132.00
2018-05-06T09:17:24.009Z,3140.00
2018-05-06T09:18:03.012Z,3164.00
2018-05-06T09:20:48.517Z,3176.00
2018-05-06T09:21:34.523Z,3176.00
2018-05-06T09:24:06.189Z,3184.00
2018-05-06T09:25:06.200Z,3192.00
2018-05-06T09:26:06.190Z,3208.00
2018-05-06T09:28:37.960Z,3252.00
2018-05-06T09:29:38.976Z,3272.00
2018-05-06T09:30:37.968Z,3300.00
2018-05-06T09:31:39.466Z,3264.00
2018-05-06T09:32:38.469Z,3288.00
2018-05-06T09:33:38.468Z,3288.00
2018-05-06T09:34:38.468Z,3292.00
2018-05-06T09:35:38.974Z,3284.00
2018-05-06T09:36:38.972Z,3308.00
2018-05-06T09:37:38.382Z,3344.00
2018-05-06T09:38:41.900Z,3360.00
2018-05-06T09:39:38.498Z,3352.00
2018-05-06T09:41:02.466Z,3344.00
2018-05-06T09:41:38.697Z,3352.00
2018-05-06T09:42:38.799Z,3372.00
2018-05-06T09:43:39.468Z,3368.00
2018-05-06T09:44:39.079Z,3400.00
2018-05-06T09:45:39.972Z,3412.00
2018-05-06T09:46:39.972Z,3432.00
2018-05-06T09:47:42.482Z,3448.00
2018-05-06T09:50:11.301Z,3484.00
2018-05-06T09:51:12.282Z,3488.00
2018-05-06T09:52:12.234Z,3464.00
2018-05-06T09:53:12.237Z,3480.00
2018-05-06T09:54:12.734Z,3488.00
2018-05-06T09:55:12.733Z,3508.00
2018-05-06T09:57:50.133Z,3504.00
2018-05-06T10:00:15.646Z,3528.00
2018-05-06T10:01:15.653Z,3532.00
2018-05-06T10:02:17.085Z,3540.00
2018-05-06T10:03:16.153Z,3568.00
2018-05-06T10:04:16.155Z,3552.00
2018-05-06T10:05:16.152Z,3580.00
2018-05-06T10:06:15.783Z,3616.00
2018-05-06T10:09:09.046Z,3624.00
2018-05-06T10:09:48.053Z,3596.00
2018-05-06T10:11:02.553Z,3608.00
2018-05-06T10:11:49.550Z,3628.00
2018-05-06T10:12:48.566Z,3676.00
2018-05-06T10:13:49.550Z,3648.00
2018-05-06T10:15:03.052Z,3660.00
2018-05-06T10:15:49.130Z,3648.00
2018-05-06T10:16:48.413Z,3656.00
2018-05-06T10:17:49.053Z,3688.00
2018-05-06T10:18:48.662Z,3712.00
2018-05-06T10:19:49.552Z,3700.00
2018-05-06T10:20:49.552Z,3740.00
2018-05-06T10:21:49.551Z,3732.00
2018-05-06T10:22:50.059Z,3744.00
2018-05-06T10:23:51.984Z,3788.00
2018-05-06T10:24:50.050Z,3772.00
2018-05-06T10:25:50.051Z,3756.00
2018-05-06T10:27:12.520Z,3776.00
2018-05-06T10:27:49.739Z,3792.00
2018-05-06T10:29:11.552Z,3840.00
2018-05-06T10:29:50.552Z,3832.00
2018-05-06T10:30:52.491Z,3852.00
2018-05-06T10:31:51.049Z,3860.00
2018-05-06T10:33:13.051Z,3864.00
2018-05-06T10:33:51.060Z,3924.00
2018-05-06T10:34:51.053Z,3932.00
2018-05-06T10:35:51.553Z,3968.00
2018-05-06T10:36:51.560Z,3968.00
2018-05-06T10:37:52.551Z,3956.00
2018-05-06T10:38:53.485Z,3972.00
2018-05-06T10:41:23.339Z,4032.00
2018-05-06T10:42:23.388Z,4064.00
2018-05-06T10:43:23.846Z,4084.00
2018-05-06T10:44:23.875Z,4036.00
2018-05-06T10:45:23.846Z,4056.00
2018-05-06T10:46:23.846Z,4096.00
2018-05-06T10:47:24.347Z,4140.00
2018-05-06T10:48:24.347Z,4124.00
2018-05-06T10:49:24.392Z,4140.00
2018-05-06T10:50:23.937Z,4148.00
2018-05-06T10:51:46.786Z,4148.00
2018-05-06T10:52:24.077Z,4132.00
2018-05-06T10:53:45.847Z,4152.00
2018-05-06T10:54:38.847Z,4160.00
2018-05-06T10:55:26.811Z,4188.00
2018-05-06T10:56:47.808Z,4224.00
2018-05-06T10:57:25.350Z,4244.00
2018-05-06T10:58:25.346Z,4240.00
2018-05-06T10:59:40.811Z,4264.00
2018-05-06T11:02:18.194Z,4268.00
2018-05-06T11:03:18.198Z,4272.00
2018-05-06T11:05:49.247Z,4352.00
2018-05-06T11:06:28.340Z,4344.00
2018-05-06T11:07:28.470Z,4352.00
2018-05-06T11:08:29.473Z,4352.00
2018-05-06T11:09:28.705Z,4400.00
2018-05-06T11:10:29.562Z,4444.00
2018-05-06T11:11:29.486Z,4456.00
2018-05-06T11:12:29.975Z,4468.00
2018-05-06T11:13:30.906Z,4496.00
2018-05-06T11:14:29.974Z,4560.00
2018-05-06T11:15:29.974Z,4568.00
2018-05-06T11:16:30.476Z,4584.00
2018-05-06T11:17:29.700Z,4588.00
2018-05-06T11:18:30.474Z,4620.00
2018-05-06T11:19:51.475Z,4720.00
2018-05-06T11:20:30.979Z,4684.00
2018-05-06T11:21:31.952Z,4700.00
2018-05-06T11:22:30.979Z,4716.00
2018-05-06T11:23:30.974Z,4744.00
2018-05-06T11:24:52.475Z,4760.00
2018-05-06T11:25:31.473Z,4784.00
2018-05-06T11:26:31.474Z,4808.00
2018-05-06T11:27:31.467Z,4824.00
2018-05-06T11:28:31.975Z,4872.00
2018-05-06T11:29:56.427Z,4928.00
2018-05-06T11:30:31.974Z,4932.00
2018-05-06T11:31:45.974Z,4944.00
2018-05-06T11:32:32.535Z,4972.00
2018-05-06T11:33:32.477Z,5020.00
2018-05-06T11:34:32.474Z,5012.00
2018-05-06T11:35:32.475Z,5068.00
2018-05-06T11:36:32.474Z,5108.00
2018-05-06T11:37:32.980Z,5120.00
2018-05-06T11:41:56.420Z,5476.00
2018-05-06T11:42:36.129Z,5604.00
2018-05-06T11:43:36.130Z,5940.00
2018-05-06T11:44:38.628Z,7912.00
2018-05-06T11:45:35.870Z,13888.00
2018-05-06T11:46:36.630Z,26048.00
2018-05-06T11:47:57.632Z,39008.00
2018-05-06T11:48:37.197Z,48800.00
2018-05-06T11:49:39.129Z,56000.00
2018-05-06T11:52:08.535Z,72160.00
2018-05-06T11:53:09.546Z,85856.00
2018-05-06T11:54:10.041Z,96320.00
2018-05-06T11:55:09.048Z,99232.00
2018-05-06T11:56:09.044Z,93888.00
2018-05-06T11:57:09.043Z,87424.00
2018-05-06T11:58:32.042Z,78656.00
2018-05-06T11:59:29.811Z,76352.00
2018-05-06T12:00:08.864Z,81472.00
2018-05-06T12:01:09.541Z,87936.00
2018-05-06T12:02:09.550Z,88352.00
2018-05-06T12:03:09.167Z,89632.00
2018-05-06T12:04:09.298Z,89280.00
2018-05-06T12:05:10.042Z,89696.00
2018-05-06T12:06:10.047Z,89824.00
2018-05-06T12:07:09.647Z,93920.00
2018-05-06T12:08:12.019Z,89760.00
2018-05-06T12:09:11.976Z,84768.00
2018-05-06T12:10:32.054Z,86528.00
2018-05-06T12:11:32.044Z,90592.00
2018-05-06T12:12:32.042Z,91392.00
2018-05-06T12:13:32.975Z,88672.00
2018-05-06T12:14:11.044Z,87680.00
2018-05-06T12:15:11.543Z,93824.00
2018-05-06T12:16:11.550Z,96256.00
2018-05-06T12:17:32.549Z,92032.00
2018-05-06T12:18:11.544Z,85760.00
2018-05-06T12:20:43.328Z,80352.00
2018-05-06T12:21:44.811Z,74080.00
2018-05-06T12:22:43.343Z,76576.00
2018-05-06T12:23:46.321Z,80640.00
2018-05-06T12:24:45.838Z,88544.00
2018-05-06T12:25:43.838Z,92672.00
2018-05-06T12:27:06.270Z,92736.00
2018-05-06T12:27:50.336Z,91392.00
2018-05-06T12:28:44.337Z,93504.00
2018-05-06T12:30:05.337Z,94752.00
2018-05-06T12:30:44.338Z,94528.00
2018-05-06T12:33:17.120Z,94912.00
2018-05-06T12:34:16.159Z,92896.00
2018-05-06T12:35:17.603Z,93120.00
2018-05-06T12:36:16.659Z,92288.00
2018-05-06T12:37:16.661Z,90400.00
2018-05-06T12:38:16.660Z,89632.00
2018-05-06T12:39:39.619Z,90912.00
2018-05-06T12:40:17.163Z,93888.00
2018-05-06T12:41:17.156Z,95168.00
2018-05-06T12:42:17.663Z,93184.00
2018-05-06T12:43:17.690Z,88736.00
2018-05-06T12:44:17.659Z,85120.00
2018-05-06T12:45:17.668Z,87360.00
2018-05-06T12:46:18.658Z,93728.00
2018-05-06T12:47:18.160Z,97760.00
2018-05-06T12:48:18.164Z,95328.00
2018-05-06T12:49:18.163Z,89888.00
2018-05-06T12:50:18.159Z,85376.00
2018-05-06T12:51:18.663Z,88192.00
2018-05-06T12:52:18.671Z,92736.00
2018-05-06T12:53:18.659Z,92704.00
2018-05-06T12:54:18.663Z,92896.00
2018-05-06T12:55:19.264Z,92576.00
2018-05-06T12:56:19.160Z,90048.00
2018-05-06T12:57:19.160Z,88096.00
2018-05-06T12:58:19.161Z,90752.00
2018-05-06T12:59:19.660Z,95712.00
2018-05-06T13:01:50.376Z,88320.00
2018-05-06T13:02:51.090Z,88480.00
2018-05-06T13:03:51.089Z,90112.00
2018-05-06T13:04:51.594Z,94048.00
2018-05-06T13:05:51.595Z,93536.00
2018-05-06T13:06:51.593Z,91424.00
2018-05-06T13:07:51.589Z,90720.00
2018-05-06T13:08:52.090Z,92000.00
2018-05-06T13:10:17.089Z,89440.00
2018-05-06T13:10:52.089Z,83232.00
2018-05-06T13:11:52.121Z,80352.00
2018-05-06T13:13:13.598Z,82304.00
2018-05-06T13:13:52.589Z,87776.00
2018-05-06T13:16:24.136Z,81792.00
2018-05-06T13:17:24.148Z,82464.00
2018-05-06T13:18:24.628Z,86496.00
2018-05-06T13:19:24.644Z,89280.00
2018-05-06T13:20:24.644Z,90592.00
2018-05-06T13:21:24.643Z,90272.00
2018-05-06T13:24:17.472Z,85312.00
2018-05-06T13:24:56.479Z,83552.00
2018-05-06T13:25:55.984Z,88704.00
2018-05-06T13:28:28.267Z,98624.00
2018-05-06T13:29:28.274Z,96352.00
2018-05-06T13:30:28.274Z,93984.00
2018-05-06T13:31:29.736Z,92992.00
2018-05-06T13:32:49.778Z,90240.00
2018-05-06T13:33:28.774Z,89216.00
2018-05-06T13:34:29.275Z,88064.00
2018-05-06T13:35:28.395Z,87840.00
2018-05-06T13:36:29.270Z,87136.00
2018-05-06T13:37:49.630Z,84096.00
2018-05-06T13:38:29.272Z,85216.00
2018-05-06T13:41:03.106Z,93152.00
2018-05-06T13:42:01.110Z,92640.00
2018-05-06T13:43:22.160Z,94368.00
2018-05-06T13:45:32.907Z,94336.00
2018-05-06T13:46:33.365Z,91904.00
2018-05-06T13:47:33.407Z,94016.00
2018-05-06T13:48:33.408Z,99264.00
2018-05-06T13:49:33.411Z,101440.00
2018-05-06T13:50:54.412Z,94432.00
2018-05-06T13:51:33.910Z,85536.00
2018-05-06T13:52:33.154Z,85600.00
2018-05-06T13:53:33.917Z,92864.00
2018-05-06T13:54:33.919Z,95552.00
2018-05-06T13:55:55.410Z,88000.00
2018-05-06T13:56:35.852Z,81632.00
2018-05-06T13:59:05.908Z,80192.00
2018-05-06T14:01:37.456Z,92448.00
2018-05-06T14:02:37.466Z,102720.00
2018-05-06T14:03:37.475Z,108864.00
2018-05-06T14:04:37.962Z,102176.00
2018-05-06T14:05:37.962Z,90144.00
2018-05-06T14:06:37.961Z,84352.00
2018-05-06T14:07:38.515Z,84032.00
2018-05-06T14:08:38.462Z,82624.00
2018-05-06T14:09:38.469Z,79200.00
2018-05-06T14:12:10.011Z,69664.00
2018-05-06T14:13:10.017Z,66912.00
2018-05-06T14:14:10.022Z,70528.00
2018-05-06T14:15:10.526Z,80096.00
2018-05-06T14:16:32.515Z,85856.00
2018-05-06T14:17:10.517Z,87456.00
2018-05-06T14:18:10.517Z,83968.00
2018-05-06T14:19:11.017Z,76352.00
2018-05-06T14:20:10.260Z,69760.00
2018-05-06T14:21:32.017Z,73952.00
2018-05-06T14:22:11.016Z,86080.00
2018-05-06T14:23:32.516Z,86176.00